Terminal Aerodrome Forecast
Issued by NWS Tampa Bay Area, FL

Home | Current Version | Previous Version | Text Only | Print | Product List | Glossary On
Versions: 1 2 3 4 5 6 7 8 9 10 11 12 13 14
656
FTUS42 KTBW 261123
TAFSRQ
TAF
KSRQ 261123Z 2612/2712 12005KT P6SM FEW250
     FM261400 15008KT P6SM SCT030 SCT100
     FM261800 22008KT P6SM VCTS SCT040CB SCT150
     FM270100 VRB04KT P6SM FEW040 SCT100 SCT250=

USA.gov is the U.S. government's official web portal to all federal, state and local government web resources and services.